Melcroft, Pennsylvania
Current Conditions -  °F | °C
As of 4:35 PM on Thursday 18 Dec 2014 (Local Time) from K2G9 Reporting Station
Overcast Overcast  
Wind Chill: 10°   Ceiling: 1000
Heat Index: 23°   Visibility: 10mi
Dew Point: 19°   Wind: 16mph
Humidity: 86%   Direction: 310°NW
Pressure: 30.06"   Gusts: 21mph
Location:  40.05°N, 79.39°W
Report Text: K2G9 182135Z AUTO 31014G18KT 10SM OVC010 M05/M07 A3006 RMK AO2
Loading
Personal Weather Stations






























Interactive Weather Map New forecast layout! Learn more

10-Day Weather Forecast

Advertisements
Track Severe Weather on mobile